createdAt,value
2023-05-21T00:02:30.245Z,100280.19
2023-05-21T00:04:57.977Z,100282.16
2023-05-21T00:07:25.566Z,100279.28
2023-05-21T00:09:53.122Z,100280.00
2023-05-21T00:12:20.656Z,100281.56
2023-05-21T00:14:48.199Z,100285.94
2023-05-21T00:17:16.067Z,100281.13
2023-05-21T00:19:43.577Z,100288.63
2023-05-21T00:22:11.228Z,100283.75
2023-05-21T00:24:38.951Z,100292.81
2023-05-21T00:27:06.496Z,100287.25
2023-05-21T00:29:34.953Z,100282.88
2023-05-21T00:32:03.181Z,100279.69
2023-05-21T00:34:30.851Z,100286.84
2023-05-21T00:36:58.617Z,100284.47
2023-05-21T00:39:26.529Z,100282.00
2023-05-21T00:41:54.191Z,100283.91
2023-05-21T00:44:22.178Z,100268.41
2023-05-21T00:46:53.749Z,100277.13
2023-05-21T00:49:24.639Z,100273.09
2023-05-21T00:51:53.143Z,100274.53
2023-05-21T00:54:21.465Z,100276.03
2023-05-21T00:56:49.085Z,100266.09
2023-05-21T00:59:16.831Z,100268.88
2023-05-21T01:01:45.685Z,100262.88
2023-05-21T01:04:13.404Z,100260.91
2023-05-21T01:06:42.692Z,100269.63
2023-05-21T01:09:10.558Z,100271.53
2023-05-21T01:11:43.030Z,100267.13
2023-05-21T01:14:11.169Z,100261.56
2023-05-21T01:16:39.401Z,100263.94
2023-05-21T01:19:07.692Z,100259.53
2023-05-21T01:21:36.094Z,100255.13
2023-05-21T01:24:05.741Z,100256.25
2023-05-21T01:26:38.831Z,100251.09
2023-05-21T01:29:06.844Z,100251.09
2023-05-21T01:31:39.240Z,100253.53
2023-05-21T01:34:06.842Z,100251.06
2023-05-21T01:36:38.210Z,100247.09
2023-05-21T01:39:09.653Z,100253.81
2023-05-21T01:41:38.645Z,100256.19
2023-05-21T01:44:06.205Z,100249.75
2023-05-21T01:46:33.915Z,100255.72
2023-05-21T01:49:01.388Z,100254.19
2023-05-21T01:51:29.084Z,100257.78
2023-05-21T01:53:56.530Z,100264.53
2023-05-21T01:56:25.941Z,100260.50
2023-05-21T01:58:56.839Z,100262.78
2023-05-21T02:01:24.941Z,100261.16
2023-05-21T02:03:52.823Z,100266.28
2023-05-21T02:06:20.304Z,100262.72
2023-05-21T02:08:48.450Z,100260.34
2023-05-21T02:11:16.352Z,100259.13
2023-05-21T02:13:46.120Z,100253.84
2023-05-21T02:16:15.865Z,100257.81
2023-05-21T02:18:44.081Z,100268.13
2023-05-21T02:21:11.608Z,100264.88
2023-05-21T02:23:39.090Z,100260.13
2023-05-21T02:26:06.886Z,100267.59
2023-05-21T02:28:36.358Z,100271.56
2023-05-21T02:31:04.207Z,100271.84
2023-05-21T02:33:32.498Z,100267.47
2023-05-21T02:36:00.226Z,100272.56
2023-05-21T02:38:28.059Z,100274.00
2023-05-21T02:40:55.927Z,100277.06
2023-05-21T02:43:24.297Z,100276.97
2023-05-21T02:45:52.149Z,100284.53
2023-05-21T02:48:20.376Z,100281.75
2023-05-21T02:50:47.779Z,100288.91
2023-05-21T02:53:15.332Z,100286.56
2023-05-21T02:55:43.116Z,100281.44
2023-05-21T02:58:13.573Z,100275.91
2023-05-21T03:00:41.892Z,100279.84
2023-05-21T03:03:09.419Z,100282.25
2023-05-21T03:05:37.167Z,100279.56
2023-05-21T03:08:05.051Z,100277.22
2023-05-21T03:10:33.197Z,100281.88
2023-05-21T03:13:01.356Z,100279.56
2023-05-21T03:15:33.352Z,100282.34
2023-05-21T03:18:00.877Z,100283.41
2023-05-21T03:20:28.999Z,100280.28
2023-05-21T03:22:56.657Z,100281.88
2023-05-21T03:25:25.395Z,100285.84
2023-05-21T03:27:54.689Z,100279.09
2023-05-21T03:30:46.315Z,100279.41
2023-05-21T03:33:32.818Z,100280.03
2023-05-21T03:36:02.485Z,100281.16
2023-05-21T03:38:34.919Z,100280.69
2023-05-21T03:41:04.064Z,100283.75
2023-05-21T03:43:31.651Z,100289.31
2023-05-21T03:45:59.339Z,100288.50
2023-05-21T03:48:55.791Z,100290.78
2023-05-21T03:51:25.020Z,100293.25
2023-05-21T03:53:52.862Z,100300.69
2023-05-21T03:56:21.702Z,100301.94
2023-05-21T03:58:49.304Z,100301.06
2023-05-21T04:01:17.847Z,100295.56
2023-05-21T04:03:45.966Z,100296.47
2023-05-21T04:06:16.070Z,100292.81
2023-05-21T04:08:44.594Z,100281.84
2023-05-21T04:11:12.186Z,100292.19
2023-05-21T04:13:39.776Z,100289.88
2023-05-21T04:16:09.485Z,100292.19
2023-05-21T04:18:37.190Z,100289.06
2023-05-21T04:21:05.235Z,100293.78
2023-05-21T04:23:33.465Z,100300.16
2023-05-21T04:26:03.141Z,100296.16
2023-05-21T04:28:31.030Z,100304.84
2023-05-21T04:30:58.783Z,100311.47
2023-05-21T04:33:26.360Z,100317.75
2023-05-21T04:35:53.930Z,100316.56
2023-05-21T04:38:21.769Z,100321.22
2023-05-21T04:40:52.431Z,100322.94
2023-05-21T04:43:26.602Z,100322.13
2023-05-21T04:45:56.730Z,100317.75
2023-05-21T04:48:27.165Z,100322.88
2023-05-21T04:50:56.124Z,100322.22
2023-05-21T04:53:26.308Z,100326.53
2023-05-21T04:55:54.067Z,100322.50
2023-05-21T04:58:21.794Z,100321.34
2023-05-21T05:00:51.955Z,100319.00
2023-05-21T05:03:19.705Z,100323.38
2023-05-21T05:05:47.530Z,100318.13
2023-05-21T05:08:16.139Z,100315.53
2023-05-21T05:10:44.024Z,100323.66
2023-05-21T05:13:12.686Z,100314.53
2023-05-21T05:15:40.461Z,100316.50
2023-05-21T05:18:09.295Z,100310.88
2023-05-21T05:20:36.745Z,100309.22
2023-05-21T05:23:04.416Z,100314.91
2023-05-21T05:25:32.528Z,100318.63
2023-05-21T05:28:00.354Z,100312.81
2023-05-21T05:30:28.088Z,100324.09
2023-05-21T05:33:01.101Z,100317.91
2023-05-21T05:35:28.823Z,100320.41
2023-05-21T05:37:57.167Z,100319.66
2023-05-21T05:40:24.936Z,100322.06
2023-05-21T05:42:52.898Z,100325.31
2023-05-21T05:45:20.649Z,100322.88
2023-05-21T05:47:48.569Z,100317.69
2023-05-21T05:50:16.407Z,100322.53
2023-05-21T05:52:44.060Z,100311.06
2023-05-21T05:55:12.643Z,100315.88
2023-05-21T05:57:40.575Z,100315.06
2023-05-21T06:00:13.775Z,100314.34
2023-05-21T06:02:44.867Z,100310.13
2023-05-21T06:05:12.774Z,100305.72
2023-05-21T06:07:41.313Z,100312.16
2023-05-21T06:10:09.204Z,100316.09
2023-05-21T06:12:36.811Z,100313.69
2023-05-21T06:15:05.911Z,100313.69
2023-05-21T06:17:34.355Z,100315.31
2023-05-21T06:20:02.816Z,100320.34
2023-05-21T06:22:30.613Z,100313.44
2023-05-21T06:24:58.999Z,100315.88
2023-05-21T06:27:26.489Z,100309.53
2023-05-21T06:29:54.392Z,100310.78
2023-05-21T06:32:23.159Z,100308.00
2023-05-21T06:34:51.045Z,100309.66
2023-05-21T06:37:25.928Z,100308.13
2023-05-21T06:39:54.337Z,100308.50
2023-05-21T06:42:22.429Z,100308.06
2023-05-21T06:45:02.475Z,100300.16
2023-05-21T06:47:32.733Z,100301.03
2023-05-21T06:50:00.293Z,100310.13
2023-05-21T06:52:27.865Z,100299.44
2023-05-21T06:54:55.549Z,100312.16
2023-05-21T06:57:25.145Z,100309.66
2023-05-21T06:59:52.886Z,100310.53
2023-05-21T07:02:20.607Z,100310.41
2023-05-21T07:04:48.590Z,100308.78
2023-05-21T07:07:16.161Z,100303.97
2023-05-21T07:09:44.380Z,100311.19
2023-05-21T07:12:12.161Z,100305.56
2023-05-21T07:14:40.243Z,100300.84
2023-05-21T07:17:07.878Z,100305.56
2023-05-21T07:19:37.066Z,100296.63
2023-05-21T07:22:06.045Z,100296.28
2023-05-21T07:24:33.821Z,100296.19
2023-05-21T07:27:04.624Z,100298.06
2023-05-21T07:29:37.215Z,100299.69
2023-05-21T07:32:05.034Z,100299.78
2023-05-21T07:34:33.211Z,100294.28
2023-05-21T07:37:00.960Z,100296.63
2023-05-21T07:39:28.848Z,100294.22
2023-05-21T07:41:56.430Z,100296.63
2023-05-21T07:44:24.575Z,100289.63
2023-05-21T07:46:52.267Z,100282.63
2023-05-21T07:49:20.168Z,100281.16
2023-05-21T07:51:48.962Z,100278.13
2023-05-21T07:54:16.968Z,100277.28
2023-05-21T07:56:45.969Z,100279.00
2023-05-21T07:59:26.090Z,100277.81
2023-05-21T08:01:53.755Z,100278.19
2023-05-21T08:04:21.450Z,100280.59
2023-05-21T08:06:49.142Z,100276.88
2023-05-21T08:09:16.796Z,100279.09
2023-05-21T08:11:44.962Z,100277.25
2023-05-21T08:14:12.711Z,100274.59
2023-05-21T08:16:40.560Z,100274.31
2023-05-21T08:19:08.217Z,100280.81
2023-05-21T08:21:36.874Z,100282.63
2023-05-21T08:24:04.513Z,100285.56
2023-05-21T08:26:33.917Z,100283.31
2023-05-21T08:29:03.071Z,100277.69
2023-05-21T08:31:30.775Z,100278.63
2023-05-21T08:33:58.904Z,100275.19
2023-05-21T08:36:38.324Z,100285.63
2023-05-21T08:39:13.366Z,100286.94
2023-05-21T08:41:49.618Z,100290.66
2023-05-21T08:44:19.311Z,100288.34
2023-05-21T08:46:47.207Z,100284.06
2023-05-21T08:49:16.146Z,100282.16
2023-05-21T08:51:44.553Z,100273.94
2023-05-21T08:54:13.514Z,100278.44
2023-05-21T08:56:45.761Z,100285.28
2023-05-21T08:59:14.172Z,100287.75
2023-05-21T09:01:42.444Z,100284.22
2023-05-21T09:04:21.647Z,100284.31
2023-05-21T09:06:55.154Z,100279.19
2023-05-21T09:09:52.920Z,100279.69
2023-05-21T09:12:20.897Z,100283.75
2023-05-21T09:14:49.378Z,100274.25
2023-05-21T09:17:20.422Z,100275.22
2023-05-21T09:20:16.756Z,100268.19
2023-05-21T09:22:51.550Z,100270.75
2023-05-21T09:25:29.460Z,100256.66
2023-05-21T09:28:01.228Z,100256.75
2023-05-21T09:30:31.136Z,100268.03
2023-05-21T09:33:00.570Z,100262.41
2023-05-21T09:35:28.428Z,100270.25
2023-05-21T09:37:57.606Z,100263.06
2023-05-21T09:40:25.353Z,100260.66
2023-05-21T09:42:53.958Z,100252.72
2023-05-21T09:45:22.697Z,100245.03
2023-05-21T09:47:52.743Z,100246.03
2023-05-21T09:50:25.826Z,100249.38
2023-05-21T09:52:53.625Z,100247.44
2023-05-21T09:55:28.586Z,100236.00
2023-05-21T09:57:56.336Z,100246.13
2023-05-21T10:00:30.537Z,100237.78
2023-05-21T10:03:01.032Z,100235.34
2023-05-21T10:05:29.495Z,100234.13
2023-05-21T10:07:59.877Z,100230.53
2023-05-21T10:10:27.979Z,100227.34
2023-05-21T10:13:00.873Z,100229.41
2023-05-21T10:15:32.132Z,100221.91
2023-05-21T10:17:59.868Z,100218.78
2023-05-21T10:20:27.426Z,100223.66
2023-05-21T10:22:54.941Z,100214.94
2023-05-21T10:25:22.438Z,100210.97
2023-05-21T10:27:50.064Z,100217.38
2023-05-21T10:30:17.734Z,100218.22
2023-05-21T10:32:45.562Z,100202.25
2023-05-21T10:35:13.820Z,100213.44
2023-05-21T10:37:41.994Z,100208.69
2023-05-21T10:40:10.151Z,100210.31
2023-05-21T10:42:45.604Z,100201.91
2023-05-21T10:45:36.868Z,100197.53
2023-05-21T10:48:22.693Z,100187.97
2023-05-21T10:51:24.115Z,100185.56
2023-05-21T10:54:25.755Z,100180.78
2023-05-21T10:57:10.255Z,100182.75
2023-05-21T10:59:44.062Z,100191.97
2023-05-21T11:02:12.879Z,100187.97
2023-05-21T11:04:42.608Z,100200.78
2023-05-21T11:07:11.211Z,100183.59
2023-05-21T11:09:39.002Z,100195.16
2023-05-21T11:12:08.199Z,100195.97
2023-05-21T11:14:40.632Z,100193.56
2023-05-21T11:17:17.537Z,100194.38
2023-05-21T11:19:50.882Z,100194.38
2023-05-21T11:22:22.335Z,100187.16
2023-05-21T11:24:51.778Z,100177.53
2023-05-21T11:27:39.256Z,100165.53
2023-05-21T11:30:09.375Z,100164.31
2023-05-21T11:32:39.154Z,100163.50
2023-05-21T11:35:07.205Z,100173.09
2023-05-21T11:37:35.390Z,100173.50
2023-05-21T11:40:19.697Z,100191.13
2023-05-21T11:42:50.003Z,100189.94
2023-05-21T11:45:21.746Z,100196.28
2023-05-21T11:47:49.806Z,100213.88
2023-05-21T11:50:17.748Z,100216.69
2023-05-21T11:52:46.198Z,100234.72
2023-05-21T11:55:15.812Z,100254.72
2023-05-21T11:57:44.923Z,100258.75
2023-05-21T12:00:16.836Z,100255.19
2023-05-21T12:02:46.657Z,100250.00
2023-05-21T12:05:14.435Z,100245.22
2023-05-21T12:07:43.222Z,100251.19
2023-05-21T12:10:11.468Z,100247.59
2023-05-21T12:12:53.333Z,100249.59
2023-05-21T12:15:24.383Z,100252.00
2023-05-21T12:17:53.295Z,100254.78
2023-05-21T12:20:21.108Z,100259.97
2023-05-21T12:22:49.692Z,100245.53
2023-05-21T12:25:20.670Z,100256.69
2023-05-21T12:27:49.829Z,100258.25
2023-05-21T12:30:17.373Z,100251.75
2023-05-21T12:32:45.687Z,100250.94
2023-05-21T12:35:24.626Z,100244.88
2023-05-21T12:37:53.014Z,100242.84
2023-05-21T12:40:21.027Z,100247.63
2023-05-21T12:42:48.738Z,100240.41
2023-05-21T12:45:18.793Z,100233.97
2023-05-21T12:47:49.023Z,100225.16
2023-05-21T12:50:16.779Z,100216.81
2023-05-21T12:52:44.361Z,100222.06
2023-05-21T12:55:15.677Z,100232.53
2023-05-21T12:57:44.020Z,100259.06
2023-05-21T13:00:12.113Z,100241.47
2023-05-21T13:02:40.911Z,100240.34
2023-05-21T13:05:16.423Z,100256.00
2023-05-21T13:07:46.888Z,100248.00
2023-05-21T13:10:16.743Z,100253.59
2023-05-21T13:12:45.284Z,100262.31
2023-05-21T13:15:13.000Z,100269.41
2023-05-21T13:17:41.085Z,100280.50
2023-05-21T13:20:12.820Z,100299.53
2023-05-21T13:22:58.792Z,100305.38
2023-05-21T13:25:29.820Z,100310.41
2023-05-21T13:27:59.152Z,100315.44
2023-05-21T13:30:26.935Z,100331.97
2023-05-21T13:32:54.990Z,100336.16
2023-05-21T13:35:22.714Z,100329.50
2023-05-21T13:37:50.311Z,100330.13
2023-05-21T13:40:17.880Z,100325.09
2023-05-21T13:42:46.828Z,100336.91
2023-05-21T13:45:16.373Z,100327.16
2023-05-21T13:47:45.124Z,100323.78
2023-05-21T13:50:12.892Z,100332.72
2023-05-21T13:52:40.941Z,100339.28
2023-05-21T13:55:09.149Z,100335.97
2023-05-21T13:57:37.211Z,100332.69
2023-05-21T14:00:06.031Z,100341.31
2023-05-21T14:02:35.450Z,100331.50
2023-05-21T14:05:03.128Z,100333.63
2023-05-21T14:07:31.115Z,100319.16
2023-05-21T14:09:58.613Z,100296.69
2023-05-21T14:12:26.956Z,100281.41
2023-05-21T14:14:54.864Z,100266.56
2023-05-21T14:17:22.785Z,100247.03
2023-05-21T14:19:50.707Z,100224.53
2023-05-21T14:22:18.909Z,100223.59
2023-05-21T14:24:47.072Z,100223.41
2023-05-21T14:27:15.978Z,100229.69
2023-05-21T14:29:43.565Z,100245.19
2023-05-21T14:32:11.146Z,100263.19
2023-05-21T14:34:40.421Z,100256.09
2023-05-21T14:37:08.072Z,100269.63
2023-05-21T14:39:36.025Z,100283.13
2023-05-21T14:42:04.946Z,100293.47
2023-05-21T14:44:32.810Z,100301.38
2023-05-21T14:47:00.599Z,100299.78
2023-05-21T14:49:28.207Z,100305.78
2023-05-21T14:51:56.154Z,100325.25
2023-05-21T14:54:23.738Z,100333.59
2023-05-21T14:56:51.291Z,100321.19
2023-05-21T14:59:18.869Z,100327.50
2023-05-21T15:01:46.558Z,100329.06
2023-05-21T15:04:14.323Z,100330.59
2023-05-21T15:06:42.175Z,100337.69
2023-05-21T15:09:10.111Z,100326.56
2023-05-21T15:11:39.850Z,100321.72
2023-05-21T15:14:07.539Z,100325.69
2023-05-21T15:16:36.056Z,100326.41
2023-05-21T15:19:04.141Z,100304.09
2023-05-21T15:21:32.715Z,100298.69
2023-05-21T15:24:00.462Z,100294.22
2023-05-21T15:26:28.278Z,100286.31
2023-05-21T15:28:55.896Z,100282.44
2023-05-21T15:31:23.483Z,100283.31
2023-05-21T15:33:51.059Z,100274.63
2023-05-21T15:36:18.550Z,100273.91
2023-05-21T15:38:46.300Z,100281.06
2023-05-21T15:41:13.709Z,100287.72
2023-05-21T15:43:42.299Z,100299.94
2023-05-21T15:46:11.277Z,100302.28
2023-05-21T15:48:38.984Z,100293.50
2023-05-21T15:51:06.403Z,100297.09
2023-05-21T15:53:34.348Z,100295.84
2023-05-21T15:56:03.318Z,100298.16
2023-05-21T15:58:31.441Z,100309.28
2023-05-21T16:00:58.952Z,100319.16
2023-05-21T16:03:26.767Z,100319.50
2023-05-21T16:05:54.350Z,100309.16
2023-05-21T16:08:21.780Z,100305.00
2023-05-21T16:10:49.136Z,100308.13
2023-05-21T16:13:16.863Z,100306.59
2023-05-21T16:15:44.785Z,100305.56
2023-05-21T16:18:12.573Z,100305.19
2023-05-21T16:20:40.199Z,100301.22
2023-05-21T16:23:07.709Z,100302.41
2023-05-21T16:25:36.542Z,100305.19
2023-05-21T16:28:04.535Z,100312.34
2023-05-21T16:30:32.150Z,100313.88
2023-05-21T16:32:59.689Z,100315.75
2023-05-21T16:35:27.478Z,100318.88
2023-05-21T16:37:55.096Z,100313.78
2023-05-21T16:40:23.112Z,100303.13
2023-05-21T16:42:51.411Z,100308.22
2023-05-21T16:45:23.367Z,100303.03
2023-05-21T16:47:51.389Z,100291.47
2023-05-21T16:50:19.939Z,100293.09
2023-05-21T16:52:47.440Z,100297.84
2023-05-21T16:55:15.258Z,100289.91
2023-05-21T16:57:42.761Z,100274.78
2023-05-21T17:00:10.783Z,100286.25
2023-05-21T17:02:39.636Z,100292.22
2023-05-21T17:05:08.047Z,100287.00
2023-05-21T17:07:35.806Z,100289.78
2023-05-21T17:10:04.941Z,100288.97
2023-05-21T17:12:32.900Z,100287.00
2023-05-21T17:15:02.204Z,100296.53
2023-05-21T17:17:30.291Z,100286.56
2023-05-21T17:19:58.199Z,100285.75
2023-05-21T17:22:25.968Z,100281.00
2023-05-21T17:24:54.019Z,100277.78
2023-05-21T17:27:21.425Z,100274.19
2023-05-21T17:29:50.275Z,100274.50
2023-05-21T17:32:17.744Z,100266.44
2023-05-21T17:34:45.172Z,100258.03
2023-05-21T17:37:14.146Z,100243.28
2023-05-21T17:39:43.852Z,100246.34
2023-05-21T17:42:11.555Z,100251.88
2023-05-21T17:44:38.961Z,100243.16
2023-05-21T17:47:07.020Z,100240.31
2023-05-21T17:49:34.966Z,100224.78
2023-05-21T17:52:04.569Z,100221.91
2023-05-21T17:54:32.058Z,100218.22
2023-05-21T17:56:59.672Z,100207.50
2023-05-21T17:59:27.190Z,100211.38
2023-05-21T18:01:54.633Z,100218.09
2023-05-21T18:04:22.661Z,100220.03
2023-05-21T18:06:51.611Z,100224.06
2023-05-21T18:09:19.087Z,100229.25
2023-05-21T18:11:46.829Z,100222.03
2023-05-21T18:14:14.707Z,100229.91
2023-05-21T18:16:42.647Z,100223.94
2023-05-21T18:19:11.354Z,100225.06
2023-05-21T18:21:40.324Z,100230.63
2023-05-21T18:24:08.219Z,100229.19
2023-05-21T18:26:35.721Z,100225.69
2023-05-21T18:29:03.206Z,100222.94
2023-05-21T18:31:30.848Z,100223.63
2023-05-21T18:33:58.298Z,100216.38
2023-05-21T18:36:26.713Z,100218.81
2023-05-21T18:38:54.212Z,100215.66
2023-05-21T18:41:22.480Z,100208.16
2023-05-21T18:43:49.922Z,100206.09
2023-05-21T18:46:17.550Z,100198.06
2023-05-21T18:48:46.372Z,100185.34
2023-05-21T18:51:13.784Z,100188.47
2023-05-21T18:53:41.459Z,100194.03
2023-05-21T18:56:10.335Z,100182.84
2023-05-21T18:58:38.665Z,100177.22
2023-05-21T19:01:06.530Z,100173.19
2023-05-21T19:03:34.013Z,100174.72
2023-05-21T19:06:01.517Z,100199.34
2023-05-21T19:08:28.941Z,100209.09
2023-05-21T19:10:57.181Z,100212.25
2023-05-21T19:13:24.841Z,100215.81
2023-05-21T19:15:52.874Z,100213.03
2023-05-21T19:18:20.425Z,100223.94
2023-05-21T19:20:47.887Z,100215.63
2023-05-21T19:23:15.420Z,100221.19
2023-05-21T19:25:43.024Z,100222.69
2023-05-21T19:28:10.545Z,100218.66
2023-05-21T19:30:38.479Z,100205.50
2023-05-21T19:33:06.407Z,100214.19
2023-05-21T19:35:36.149Z,100210.16
2023-05-21T19:38:05.420Z,100206.22
2023-05-21T19:40:33.537Z,100205.50
2023-05-21T19:43:01.070Z,100203.53
2023-05-21T19:45:28.815Z,100213.56
2023-05-21T19:47:56.859Z,100205.31
2023-05-21T19:50:24.697Z,100201.00
2023-05-21T19:52:52.225Z,100214.22
2023-05-21T19:55:22.815Z,100218.22
2023-05-21T19:57:50.446Z,100216.28
2023-05-21T20:00:18.382Z,100223.84
2023-05-21T20:02:46.785Z,100225.50
2023-05-21T20:05:14.725Z,100234.94
2023-05-21T20:07:42.423Z,100251.59
2023-05-21T20:10:10.061Z,100256.00
2023-05-21T20:12:38.983Z,100275.44
2023-05-21T20:15:07.137Z,100273.81
2023-05-21T20:17:36.006Z,100239.53
2023-05-21T20:20:07.453Z,100238.53
2023-05-21T20:22:35.235Z,100256.34
2023-05-21T20:25:04.195Z,100254.34
2023-05-21T20:27:32.090Z,100239.25
2023-05-21T20:29:59.581Z,100238.34
2023-05-21T20:32:27.908Z,100231.91
2023-05-21T20:35:03.408Z,100229.88
2023-05-21T20:37:34.435Z,100225.47
2023-05-21T20:40:02.005Z,100219.81
2023-05-21T20:42:34.292Z,100208.66
2023-05-21T20:45:03.192Z,100202.66
2023-05-21T20:47:32.049Z,100225.56
2023-05-21T20:49:59.757Z,100206.88
2023-05-21T20:52:27.535Z,100209.09
2023-05-21T20:54:55.336Z,100210.63
2023-05-21T20:57:22.863Z,100210.53
2023-05-21T20:59:53.669Z,100204.16
2023-05-21T21:02:21.731Z,100200.97
2023-05-21T21:04:50.683Z,100204.16
2023-05-21T21:07:18.457Z,100188.34
2023-05-21T21:09:47.045Z,100193.53
2023-05-21T21:12:26.087Z,100197.09
2023-05-21T21:14:54.809Z,100184.06
2023-05-21T21:17:22.419Z,100189.59
2023-05-21T21:19:50.032Z,100187.53
2023-05-21T21:22:18.618Z,100180.38
2023-05-21T21:24:46.156Z,100177.25
2023-05-21T21:27:14.346Z,100180.75
2023-05-21T21:29:42.022Z,100176.78
2023-05-21T21:32:09.466Z,100173.25
2023-05-21T21:34:38.297Z,100169.13
2023-05-21T21:37:05.981Z,100176.28
2023-05-21T21:39:33.387Z,100171.16
2023-05-21T21:42:01.122Z,100167.63
2023-05-21T21:44:28.810Z,100188.53
2023-05-21T21:46:56.169Z,100179.75
2023-05-21T21:49:23.571Z,100181.38
2023-05-21T21:51:51.365Z,100190.50
2023-05-21T21:54:19.085Z,100184.13
2023-05-21T21:56:46.427Z,100173.78
2023-05-21T21:59:13.840Z,100180.72
2023-05-21T22:01:41.961Z,100177.19
2023-05-21T22:04:09.557Z,100173.59
2023-05-21T22:06:39.137Z,100176.34
2023-05-21T22:09:06.944Z,100169.91
2023-05-21T22:11:34.603Z,100170.38
2023-05-21T22:14:02.573Z,100163.19
2023-05-21T22:16:30.366Z,100171.53
2023-05-21T22:18:58.904Z,100174.28
2023-05-21T22:21:32.791Z,100161.59
2023-05-21T22:24:00.256Z,100161.59
2023-05-21T22:26:28.027Z,100164.47
2023-05-21T22:28:55.801Z,100158.91
2023-05-21T22:31:23.315Z,100164.84
2023-05-21T22:33:50.830Z,100156.97
2023-05-21T22:36:18.398Z,100158.56
2023-05-21T22:38:45.892Z,100160.44
2023-05-21T22:41:13.649Z,100150.50
2023-05-21T22:43:41.476Z,100151.69
2023-05-21T22:46:08.928Z,100158.41
2023-05-21T22:48:37.403Z,100158.19
2023-05-21T22:51:05.568Z,100150.16
2023-05-21T22:53:33.502Z,100143.72
2023-05-21T22:56:01.163Z,100152.72
2023-05-21T22:58:28.686Z,100145.47
2023-05-21T23:00:56.232Z,100146.97
2023-05-21T23:03:23.988Z,100140.28
2023-05-21T23:05:51.508Z,100138.66
2023-05-21T23:08:19.156Z,100137.78
2023-05-21T23:10:46.876Z,100147.25
2023-05-21T23:13:14.401Z,100149.53
2023-05-21T23:15:44.021Z,100153.47
2023-05-21T23:18:11.790Z,100154.19
2023-05-21T23:20:41.265Z,100151.31
2023-05-21T23:23:09.893Z,100155.59
2023-05-21T23:25:37.513Z,100160.25
2023-05-21T23:28:05.083Z,100160.25
2023-05-21T23:30:33.075Z,100153.88
2023-05-21T23:33:00.714Z,100151.13
2023-05-21T23:35:28.183Z,100154.16
2023-05-21T23:37:55.994Z,100148.97
2023-05-21T23:40:23.442Z,100145.06
2023-05-21T23:42:51.061Z,100142.28
2023-05-21T23:45:18.580Z,100139.94
2023-05-21T23:47:46.580Z,100137.88
2023-05-21T23:50:14.082Z,100137.09
2023-05-21T23:52:41.640Z,100138.59
2023-05-21T23:55:11.553Z,100134.47
2023-05-21T23:57:39.190Z,100134.03
